CheckWX is a tool to help pilots better visualize weather data.  It is not intended as a substitute for an official pre-flight weather briefing.

10:17:01 UTC

KBJC METAR
Rocky Mountain Metropolitan Airport
Denver, Colorado, USA
Current

24 mins ago

KBJC 160953Z AUTO 31009KT 10SM CLR 16/12 A3010 RMK AO2
Observed
Jul-16 @ 09:53 UTC
Wind
  • 310° at 9 KTS
Visibility
10 SM
Flight Rules
VFR
Cloud Levels
  • Clear skies
Temperature
16°C / 61°F
Dewpoint
12°C / 54°F
Humidity
77%
Altimeter
30.1" Hg
Pressure
1019.32 hPa
Previous

48 mins ago

KBJC 160929Z AUTO 32008KT 10SM CLR 17/12 A3010 RMK AO2
Observed
Jul-16 @ 09:29 UTC
Wind
  • 320° at 8 KTS
Visibility
10 SM
Flight Rules
VFR
Cloud Levels
  • Clear skies
Temperature
17°C / 63°F
Dewpoint
12°C / 54°F
Humidity
73%
Altimeter
30.1" Hg
Pressure
1019.32 hPa
Previous

1 hour ago

KBJC 160912Z AUTO 00000KT 10SM CLR 16/12 A3011 RMK AO2
Observed
Jul-16 @ 09:12 UTC
Visibility
10 SM
Flight Rules
VFR
Cloud Levels
  • Clear skies
Temperature
16°C / 61°F
Dewpoint
12°C / 54°F
Humidity
77%
Altimeter
30.11" Hg
Pressure
1019.62 hPa